Terminal Aerodrome Forecast
Issued by NWS Shreveport, LA

Home | Current Version | Previous Version | Text Only | Print | Product List | Glossary On
Versions: 1 2 3 4 5 6 7 8 9 10 11 12 13 14 15 16 17 18 19 20 21 22 23 24 25
996
FTUS44 KSHV 290525
TAFELD
TAF
KELD 290525Z 2906/3006 00000KT 6SM BR SCT180 BKN250
      TEMPO 2906/2909 2SM BR BKN005
     FM290900 00000KT 2SM BR SCT005 SCT180 BKN250
      TEMPO 2909/2913 1SM BR BKN002
     FM291300 22004KT P6SM BKN010 BKN250
     FM291500 23006KT P6SM SCT030 SCT250
     FM291800 22007KT P6SM SCT045 SCT250
     FM300100 19005KT P6SM FEW060 SCT250=

USA.gov is the U.S. government's official web portal to all federal, state and local government web resources and services.